sensor_id;sensor_type;location;lat;lon;timestamp;pressure;altitude;pressure_sealevel;temperature;humidity
21960;BME280;11144;43.030;25.108;2024-02-21T00:01:26;100175.09;;;4.79;81.12
21960;BME280;11144;43.030;25.108;2024-02-21T00:02:58;100168.25;;;4.78;80.94
21960;BME280;11144;43.030;25.108;2024-02-21T00:04:35;100171.53;;;4.80;81.12
21960;BME280;11144;43.030;25.108;2024-02-21T00:06:08;100173.44;;;4.78;81.21
21960;BME280;11144;43.030;25.108;2024-02-21T00:07:42;100169.06;;;4.79;81.04
21960;BME280;11144;43.030;25.108;2024-02-21T00:09:14;100168.75;;;4.72;81.06
21960;BME280;11144;43.030;25.108;2024-02-21T00:10:47;100161.31;;;4.68;81.00
21960;BME280;11144;43.030;25.108;2024-02-21T00:12:21;100162.31;;;4.56;81.13
21960;BME280;11144;43.030;25.108;2024-02-21T00:13:53;100149.75;;;4.40;81.06
21960;BME280;11144;43.030;25.108;2024-02-21T00:15:27;100166.59;;;4.45;81.14
21960;BME280;11144;43.030;25.108;2024-02-21T00:17:00;100148.66;;;4.31;81.21
21960;BME280;11144;43.030;25.108;2024-02-21T00:18:33;100166.81;;;4.42;81.42
21960;BME280;11144;43.030;25.108;2024-02-21T00:20:09;100166.81;;;4.42;81.34
21960;BME280;11144;43.030;25.108;2024-02-21T00:21:42;100170.59;;;4.38;81.29
21960;BME280;11144;43.030;25.108;2024-02-21T00:23:14;100159.41;;;4.38;81.33
21960;BME280;11144;43.030;25.108;2024-02-21T00:24:48;100158.00;;;4.34;81.37
21960;BME280;11144;43.030;25.108;2024-02-21T00:26:20;100165.91;;;4.32;81.41
21960;BME280;11144;43.030;25.108;2024-02-21T00:27:54;100159.31;;;4.28;81.51
21960;BME280;11144;43.030;25.108;2024-02-21T00:29:26;100150.72;;;4.17;81.13
21960;BME280;11144;43.030;25.108;2024-02-21T00:30:59;100153.09;;;4.20;81.41
21960;BME280;11144;43.030;25.108;2024-02-21T00:32:32;100154.28;;;4.16;81.65
21960;BME280;11144;43.030;25.108;2024-02-21T00:34:06;100150.59;;;4.07;81.35
21960;BME280;11144;43.030;25.108;2024-02-21T00:35:41;100138.59;;;3.95;81.44
21960;BME280;11144;43.030;25.108;2024-02-21T00:37:13;100143.66;;;3.97;81.79
21960;BME280;11144;43.030;25.108;2024-02-21T00:38:47;100146.38;;;3.95;81.74
21960;BME280;11144;43.030;25.108;2024-02-21T00:40:19;100155.94;;;3.95;81.85
21960;BME280;11144;43.030;25.108;2024-02-21T00:41:54;100148.16;;;3.95;82.07
21960;BME280;11144;43.030;25.108;2024-02-21T00:43:26;100149.09;;;3.94;81.92
21960;BME280;11144;43.030;25.108;2024-02-21T00:45:00;100146.03;;;3.89;81.98
21960;BME280;11144;43.030;25.108;2024-02-21T00:46:33;100147.44;;;3.93;81.77
21960;BME280;11144;43.030;25.108;2024-02-21T00:48:06;100149.47;;;3.89;82.08
21960;BME280;11144;43.030;25.108;2024-02-21T00:49:39;100149.47;;;3.89;81.81
21960;BME280;11144;43.030;25.108;2024-02-21T00:51:14;100141.91;;;3.86;81.50
21960;BME280;11144;43.030;25.108;2024-02-21T00:52:47;100148.97;;;3.84;81.85
21960;BME280;11144;43.030;25.108;2024-02-21T00:54:20;100139.66;;;3.82;81.81
21960;BME280;11144;43.030;25.108;2024-02-21T00:55:55;100140.59;;;3.69;81.66
21960;BME280;11144;43.030;25.108;2024-02-21T00:57:28;100150.16;;;3.58;81.77
21960;BME280;11144;43.030;25.108;2024-02-21T00:59:02;100141.75;;;3.43;81.53
21960;BME280;11144;43.030;25.108;2024-02-21T01:00:34;100140.13;;;3.31;81.41
21960;BME280;11144;43.030;25.108;2024-02-21T01:02:08;100142.91;;;3.17;81.92
21960;BME280;11144;43.030;25.108;2024-02-21T01:03:40;100147.50;;;3.14;82.04
21960;BME280;11144;43.030;25.108;2024-02-21T01:05:14;100150.88;;;3.03;81.89
21960;BME280;11144;43.030;25.108;2024-02-21T01:06:47;100149.53;;;2.86;81.84
21960;BME280;11144;43.030;25.108;2024-02-21T01:08:21;100151.25;;;2.75;82.08
21960;BME280;11144;43.030;25.108;2024-02-21T01:09:53;100152.72;;;2.66;82.41
21960;BME280;11144;43.030;25.108;2024-02-21T01:11:27;100137.03;;;2.57;82.39
21960;BME280;11144;43.030;25.108;2024-02-21T01:12:59;100146.66;;;2.55;82.38
21960;BME280;11144;43.030;25.108;2024-02-21T01:14:33;100147.84;;;2.51;82.62
21960;BME280;11144;43.030;25.108;2024-02-21T01:16:05;100148.88;;;2.48;82.54
21960;BME280;11144;43.030;25.108;2024-02-21T01:17:39;100145.56;;;2.46;82.71
21960;BME280;11144;43.030;25.108;2024-02-21T01:19:12;100140.63;;;2.43;82.54
21960;BME280;11144;43.030;25.108;2024-02-21T01:20:46;100140.63;;;2.43;82.31
21960;BME280;11144;43.030;25.108;2024-02-21T01:22:20;100145.69;;;2.45;82.14
21960;BME280;11144;43.030;25.108;2024-02-21T01:23:53;100130.72;;;2.37;82.63
21960;BME280;11144;43.030;25.108;2024-02-21T01:25:27;100141.22;;;2.47;82.55
21960;BME280;11144;43.030;25.108;2024-02-21T01:27:00;100145.03;;;2.54;82.59
21960;BME280;11144;43.030;25.108;2024-02-21T01:28:33;100136.81;;;2.60;82.63
21960;BME280;11144;43.030;25.108;2024-02-21T01:30:06;100143.41;;;2.64;82.69
21960;BME280;11144;43.030;25.108;2024-02-21T01:31:40;100125.97;;;2.55;83.02
21960;BME280;11144;43.030;25.108;2024-02-21T01:33:12;100132.75;;;2.68;83.08
21960;BME280;11144;43.030;25.108;2024-02-21T01:34:46;100134.88;;;2.74;83.07
21960;BME280;11144;43.030;25.108;2024-02-21T01:36:18;100137.88;;;2.81;83.10
21960;BME280;11144;43.030;25.108;2024-02-21T01:37:53;100133.06;;;2.87;83.15
21960;BME280;11144;43.030;25.108;2024-02-21T01:39:25;100137.66;;;2.95;83.39
21960;BME280;11144;43.030;25.108;2024-02-21T01:40:59;100128.63;;;3.01;83.67
21960;BME280;11144;43.030;25.108;2024-02-21T01:42:31;100128.28;;;3.05;83.24
21960;BME280;11144;43.030;25.108;2024-02-21T01:44:05;100123.56;;;3.10;83.09
21960;BME280;11144;43.030;25.108;2024-02-21T01:45:38;100116.28;;;3.15;83.08
21960;BME280;11144;43.030;25.108;2024-02-21T01:47:12;100127.13;;;3.20;83.08
21960;BME280;11144;43.030;25.108;2024-02-21T01:48:46;100121.59;;;3.25;83.01
21960;BME280;11144;43.030;25.108;2024-02-21T01:50:19;100120.31;;;3.30;82.88
21960;BME280;11144;43.030;25.108;2024-02-21T01:51:52;100117.50;;;3.33;82.87
21960;BME280;11144;43.030;25.108;2024-02-21T01:53:30;100108.31;;;3.29;82.62
21960;BME280;11144;43.030;25.108;2024-02-21T01:55:06;100108.19;;;3.31;82.66
21960;BME280;11144;43.030;25.108;2024-02-21T01:56:39;100113.03;;;3.35;82.67
21960;BME280;11144;43.030;25.108;2024-02-21T01:58:13;100111.47;;;3.33;82.67
21960;BME280;11144;43.030;25.108;2024-02-21T01:59:48;100111.81;;;3.28;82.42
21960;BME280;11144;43.030;25.108;2024-02-21T02:01:21;100108.88;;;3.22;82.55
21960;BME280;11144;43.030;25.108;2024-02-21T02:02:55;100106.41;;;3.20;82.73
21960;BME280;11144;43.030;25.108;2024-02-21T02:04:28;100103.34;;;3.15;82.98
21960;BME280;11144;43.030;25.108;2024-02-21T02:06:03;100101.69;;;3.14;82.77
21960;BME280;11144;43.030;25.108;2024-02-21T02:07:36;100106.06;;;3.14;82.80
21960;BME280;11144;43.030;25.108;2024-02-21T02:09:11;100109.34;;;3.16;82.70
21960;BME280;11144;43.030;25.108;2024-02-21T02:10:44;100109.47;;;3.14;82.83
21960;BME280;11144;43.030;25.108;2024-02-21T02:12:18;100107.34;;;3.19;82.95
21960;BME280;11144;43.030;25.108;2024-02-21T02:13:50;100109.72;;;3.22;82.93
21960;BME280;11144;43.030;25.108;2024-02-21T02:15:24;100105.22;;;3.24;83.07
21960;BME280;11144;43.030;25.108;2024-02-21T02:16:56;100107.59;;;3.27;83.04
21960;BME280;11144;43.030;25.108;2024-02-21T02:18:30;100109.50;;;3.25;83.40
21960;BME280;11144;43.030;25.108;2024-02-21T02:20:04;100110.06;;;3.29;83.37
21960;BME280;11144;43.030;25.108;2024-02-21T02:21:39;100114.41;;;3.28;83.20
21960;BME280;11144;43.030;25.108;2024-02-21T02:23:24;100114.19;;;3.31;83.22
21960;BME280;11144;43.030;25.108;2024-02-21T02:24:58;100109.25;;;3.28;83.48
21960;BME280;11144;43.030;25.108;2024-02-21T02:26:30;100111.59;;;3.31;83.40
21960;BME280;11144;43.030;25.108;2024-02-21T02:28:04;100118.19;;;3.35;83.47
21960;BME280;11144;43.030;25.108;2024-02-21T02:29:36;100109.59;;;3.35;83.95
21960;BME280;11144;43.030;25.108;2024-02-21T02:31:29;100099.13;;;3.36;83.45
21960;BME280;11144;43.030;25.108;2024-02-21T02:33:17;100106.91;;;3.36;83.88
21960;BME280;11144;43.030;25.108;2024-02-21T02:34:50;100104.06;;;3.39;83.68
21960;BME280;11144;43.030;25.108;2024-02-21T02:36:23;100113.72;;;3.37;83.52
21960;BME280;11144;43.030;25.108;2024-02-21T02:37:56;100105.47;;;3.32;83.58
21960;BME280;11144;43.030;25.108;2024-02-21T02:39:31;100113.59;;;3.39;83.53
21960;BME280;11144;43.030;25.108;2024-02-21T02:41:03;100116.31;;;3.37;83.71
21960;BME280;11144;43.030;25.108;2024-02-21T02:42:37;100103.94;;;3.41;83.59
21960;BME280;11144;43.030;25.108;2024-02-21T02:44:09;100119.28;;;3.44;83.43
21960;BME280;11144;43.030;25.108;2024-02-21T02:45:42;100108.56;;;3.48;83.64
21960;BME280;11144;43.030;25.108;2024-02-21T02:47:16;100115.16;;;3.52;83.56
21960;BME280;11144;43.030;25.108;2024-02-21T02:48:48;100093.69;;;3.39;83.50
21960;BME280;11144;43.030;25.108;2024-02-21T02:50:22;100114.66;;;3.47;83.33
21960;BME280;11144;43.030;25.108;2024-02-21T02:51:55;100113.16;;;3.45;83.41
21960;BME280;11144;43.030;25.108;2024-02-21T02:53:28;100123.25;;;3.37;83.52
21960;BME280;11144;43.030;25.108;2024-02-21T02:55:02;100119.88;;;3.36;83.43
21960;BME280;11144;43.030;25.108;2024-02-21T02:56:35;100123.38;;;3.35;83.38
21960;BME280;11144;43.030;25.108;2024-02-21T02:58:09;100119.03;;;3.36;83.58
21960;BME280;11144;43.030;25.108;2024-02-21T02:59:41;100122.47;;;3.36;83.46
21960;BME280;11144;43.030;25.108;2024-02-21T03:01:14;100122.47;;;3.36;83.40
21960;BME280;11144;43.030;25.108;2024-02-21T03:02:48;100118.19;;;3.35;83.24
21960;BME280;11144;43.030;25.108;2024-02-21T03:04:22;100122.69;;;3.33;83.46
21960;BME280;11144;43.030;25.108;2024-02-21T03:05:55;100122.19;;;3.28;83.45
21960;BME280;11144;43.030;25.108;2024-02-21T03:07:28;100118.19;;;3.24;83.66
21960;BME280;11144;43.030;25.108;2024-02-21T03:09:00;100129.47;;;3.23;83.49
21960;BME280;11144;43.030;25.108;2024-02-21T03:10:42;100121.69;;;3.23;83.59
21960;BME280;11144;43.030;25.108;2024-02-21T03:12:14;100120.19;;;3.21;83.67
21960;BME280;11144;43.030;25.108;2024-02-21T03:13:55;100118.66;;;3.18;83.48
21960;BME280;11144;43.030;25.108;2024-02-21T03:15:29;100124.75;;;3.17;83.45
21960;BME280;11144;43.030;25.108;2024-02-21T03:17:02;100122.31;;;3.16;83.50
21960;BME280;11144;43.030;25.108;2024-02-21T03:18:35;100120.75;;;3.13;83.50
21960;BME280;11144;43.030;25.108;2024-02-21T03:20:09;100125.22;;;3.11;83.42
21960;BME280;11144;43.030;25.108;2024-02-21T03:21:44;100128.75;;;3.10;83.53
21960;BME280;11144;43.030;25.108;2024-02-21T03:23:17;100127.81;;;3.11;83.55
21960;BME280;11144;43.030;25.108;2024-02-21T03:24:51;100122.44;;;3.14;83.42
21960;BME280;11144;43.030;25.108;2024-02-21T03:26:26;100126.66;;;3.15;83.42
21960;BME280;11144;43.030;25.108;2024-02-21T03:27:58;100131.00;;;3.15;83.58
21960;BME280;11144;43.030;25.108;2024-02-21T03:29:32;100129.25;;;3.15;83.45
21960;BME280;11144;43.030;25.108;2024-02-21T03:31:04;100123.34;;;3.13;83.26
21960;BME280;11144;43.030;25.108;2024-02-21T03:32:37;100128.66;;;3.12;83.58
21960;BME280;11144;43.030;25.108;2024-02-21T03:34:11;100128.66;;;3.12;83.72
21960;BME280;11144;43.030;25.108;2024-02-21T03:35:45;100127.81;;;3.11;83.86
21960;BME280;11144;43.030;25.108;2024-02-21T03:37:17;100129.47;;;3.12;83.78
21960;BME280;11144;43.030;25.108;2024-02-21T03:38:51;100129.47;;;3.12;83.73
21960;BME280;11144;43.030;25.108;2024-02-21T03:40:23;100131.94;;;3.14;83.60
21960;BME280;11144;43.030;25.108;2024-02-21T03:41:58;100132.78;;;3.14;83.62
21960;BME280;11144;43.030;25.108;2024-02-21T03:43:32;100137.84;;;3.16;83.73
21960;BME280;11144;43.030;25.108;2024-02-21T03:45:06;100129.94;;;3.17;83.47
21960;BME280;11144;43.030;25.108;2024-02-21T03:46:39;100131.50;;;3.20;83.55
21960;BME280;11144;43.030;25.108;2024-02-21T03:48:13;100134.66;;;3.23;83.51
21960;BME280;11144;43.030;25.108;2024-02-21T03:49:46;100139.75;;;3.25;83.39
21960;BME280;11144;43.030;25.108;2024-02-21T03:51:18;100140.94;;;3.21;83.52
21960;BME280;11144;43.030;25.108;2024-02-21T03:52:51;100137.50;;;3.20;83.43
21960;BME280;11144;43.030;25.108;2024-02-21T03:54:25;100131.97;;;3.25;83.51
21960;BME280;11144;43.030;25.108;2024-02-21T03:56:00;100126.88;;;3.23;83.35
21960;BME280;11144;43.030;25.108;2024-02-21T03:57:37;100123.38;;;3.24;83.32
21960;BME280;11144;43.030;25.108;2024-02-21T03:59:10;100119.09;;;3.12;83.49
21960;BME280;11144;43.030;25.108;2024-02-21T04:00:43;100129.03;;;3.18;83.41
21960;BME280;11144;43.030;25.108;2024-02-21T04:02:16;100115.09;;;3.08;83.63
21960;BME280;11144;43.030;25.108;2024-02-21T04:03:49;100127.00;;;3.11;83.58
21960;BME280;11144;43.030;25.108;2024-02-21T04:05:22;100131.59;;;3.07;83.52
21960;BME280;11144;43.030;25.108;2024-02-21T04:06:56;100127.34;;;3.06;83.71
21960;BME280;11144;43.030;25.108;2024-02-21T04:08:28;100126.41;;;3.07;83.76
21960;BME280;11144;43.030;25.108;2024-02-21T04:10:02;100121.44;;;3.04;83.64
21960;BME280;11144;43.030;25.108;2024-02-21T04:11:34;100125.22;;;3.11;83.56
21960;BME280;11144;43.030;25.108;2024-02-21T04:13:09;100120.06;;;3.11;83.52
21960;BME280;11144;43.030;25.108;2024-02-21T04:14:41;100130.41;;;3.11;83.28
21960;BME280;11144;43.030;25.108;2024-02-21T04:16:18;100123.56;;;3.10;83.48
21960;BME280;11144;43.030;25.108;2024-02-21T04:17:50;100100.69;;;2.93;83.34
21960;BME280;11144;43.030;25.108;2024-02-21T04:19:25;100110.94;;;2.94;83.58
21960;BME280;11144;43.030;25.108;2024-02-21T04:20:58;100122.00;;;2.96;83.61
21960;BME280;11144;43.030;25.108;2024-02-21T04:22:31;100130.84;;;2.94;83.56
21960;BME280;11144;43.030;25.108;2024-02-21T04:24:04;100128.47;;;2.91;83.62
21960;BME280;11144;43.030;25.108;2024-02-21T04:25:38;100126.22;;;2.86;83.79
21960;BME280;11144;43.030;25.108;2024-02-21T04:27:10;100116.88;;;2.73;83.84
21960;BME280;11144;43.030;25.108;2024-02-21T04:28:46;100126.41;;;2.72;83.81
21960;BME280;11144;43.030;25.108;2024-02-21T04:30:19;100128.28;;;2.70;83.88
21960;BME280;11144;43.030;25.108;2024-02-21T04:31:52;100120.63;;;2.69;83.99
21960;BME280;11144;43.030;25.108;2024-02-21T04:33:26;100132.84;;;2.67;84.14
21960;BME280;11144;43.030;25.108;2024-02-21T04:34:58;100132.25;;;2.63;83.94
21960;BME280;11144;43.030;25.108;2024-02-21T04:36:32;100137.41;;;2.63;84.17
21960;BME280;11144;43.030;25.108;2024-02-21T04:38:06;100133.06;;;2.64;84.11
21960;BME280;11144;43.030;25.108;2024-02-21T04:39:38;100138.25;;;2.64;84.25
21960;BME280;11144;43.030;25.108;2024-02-21T04:41:11;100136.50;;;2.64;84.48
21960;BME280;11144;43.030;25.108;2024-02-21T04:42:45;100133.69;;;2.67;84.31
21960;BME280;11144;43.030;25.108;2024-02-21T04:44:18;100133.69;;;2.67;84.02
21960;BME280;11144;43.030;25.108;2024-02-21T04:45:54;100135.56;;;2.65;84.25
21960;BME280;11144;43.030;25.108;2024-02-21T04:47:27;100128.72;;;2.64;84.26
21960;BME280;11144;43.030;25.108;2024-02-21T04:49:00;100140.63;;;2.67;84.27
21960;BME280;11144;43.030;25.108;2024-02-21T04:50:33;100139.41;;;2.60;84.59
21960;BME280;11144;43.030;25.108;2024-02-21T04:52:06;100134.34;;;2.58;84.66
21960;BME280;11144;43.030;25.108;2024-02-21T04:53:38;100141.78;;;2.63;84.76
21960;BME280;11144;43.030;25.108;2024-02-21T04:55:12;100133.91;;;2.64;84.55
21960;BME280;11144;43.030;25.108;2024-02-21T04:56:44;100134.63;;;2.66;84.53
21960;BME280;11144;43.030;25.108;2024-02-21T04:58:19;100139.78;;;2.66;84.56
21960;BME280;11144;43.030;25.108;2024-02-21T04:59:53;100141.53;;;2.66;84.51
21960;BME280;11144;43.030;25.108;2024-02-21T05:01:26;100144.13;;;2.66;84.52
21960;BME280;11144;43.030;25.108;2024-02-21T05:03:00;100130.81;;;2.59;84.47
21960;BME280;11144;43.030;25.108;2024-02-21T05:04:34;100138.97;;;2.66;84.69
21960;BME280;11144;43.030;25.108;2024-02-21T05:06:06;100141.66;;;2.64;84.70
21960;BME280;11144;43.030;25.108;2024-02-21T05:07:40;100145.91;;;2.65;85.24
21960;BME280;11144;43.030;25.108;2024-02-21T05:09:14;100144.63;;;2.71;84.97
21960;BME280;11144;43.030;25.108;2024-02-21T05:10:46;100147.81;;;2.74;85.23
21960;BME280;11144;43.030;25.108;2024-02-21T05:12:20;100151.84;;;2.78;85.07
21960;BME280;11144;43.030;25.108;2024-02-21T05:13:52;100153.16;;;2.84;85.19
21960;BME280;11144;43.030;25.108;2024-02-21T05:15:27;100152.00;;;2.88;85.00
21960;BME280;11144;43.030;25.108;2024-02-21T05:16:59;100129.59;;;2.76;84.91
21960;BME280;11144;43.030;25.108;2024-02-21T05:18:33;100147.66;;;2.88;84.75
21960;BME280;11144;43.030;25.108;2024-02-21T05:20:07;100159.34;;;2.94;84.69
21960;BME280;11144;43.030;25.108;2024-02-21T05:21:39;100157.47;;;2.96;84.75
21960;BME280;11144;43.030;25.108;2024-02-21T05:23:13;100158.03;;;2.99;84.71
21960;BME280;11144;43.030;25.108;2024-02-21T05:24:45;100161.47;;;3.00;84.77
21960;BME280;11144;43.030;25.108;2024-02-21T05:26:22;100167.56;;;2.99;84.33
21960;BME280;11144;43.030;25.108;2024-02-21T05:27:55;100158.16;;;2.98;84.41
21960;BME280;11144;43.030;25.108;2024-02-21T05:29:28;100165.44;;;2.93;84.19
21960;BME280;11144;43.030;25.108;2024-02-21T05:31:03;100158.97;;;2.87;84.13
21960;BME280;11144;43.030;25.108;2024-02-21T05:32:35;100168.69;;;2.84;84.07
21960;BME280;11144;43.030;25.108;2024-02-21T05:34:08;100167.84;;;2.83;84.44
21960;BME280;11144;43.030;25.108;2024-02-21T05:35:41;100166.34;;;2.81;84.27
21960;BME280;11144;43.030;25.108;2024-02-21T05:37:14;100166.34;;;2.81;84.39
21960;BME280;11144;43.030;25.108;2024-02-21T05:38:47;100168.69;;;2.84;84.35
21960;BME280;11144;43.030;25.108;2024-02-21T05:40:20;100169.66;;;2.83;84.53
21960;BME280;11144;43.030;25.108;2024-02-21T05:41:53;100163.63;;;2.82;84.69
21960;BME280;11144;43.030;25.108;2024-02-21T05:43:26;100168.56;;;2.85;84.39
21960;BME280;11144;43.030;25.108;2024-02-21T05:44:59;100170.13;;;2.88;84.32
21960;BME280;11144;43.030;25.108;2024-02-21T05:46:33;100167.53;;;2.88;84.20
21960;BME280;11144;43.030;25.108;2024-02-21T05:48:07;100176.25;;;2.87;84.12
21960;BME280;11144;43.030;25.108;2024-02-21T05:49:40;100177.09;;;2.87;84.03
21960;BME280;11144;43.030;25.108;2024-02-21T05:51:13;100180.47;;;2.88;83.96
21960;BME280;11144;43.030;25.108;2024-02-21T05:52:46;100184.03;;;2.87;84.08
21960;BME280;11144;43.030;25.108;2024-02-21T05:54:20;100194.13;;;2.90;84.10
21960;BME280;11144;43.030;25.108;2024-02-21T05:55:52;100169.66;;;2.83;84.07
21960;BME280;11144;43.030;25.108;2024-02-21T05:57:25;100187.19;;;2.90;83.80
21960;BME280;11144;43.030;25.108;2024-02-21T05:58:58;100184.53;;;2.92;83.78
21960;BME280;11144;43.030;25.108;2024-02-21T06:00:31;100188.63;;;2.94;83.79
21960;BME280;11144;43.030;25.108;2024-02-21T06:02:06;100185.94;;;2.96;83.73
21960;BME280;11144;43.030;25.108;2024-02-21T06:03:39;100184.53;;;2.92;83.45
21960;BME280;11144;43.030;25.108;2024-02-21T06:05:13;100189.34;;;2.96;83.64
21960;BME280;11144;43.030;25.108;2024-02-21T06:06:45;100193.47;;;2.99;83.63
21960;BME280;11144;43.030;25.108;2024-02-21T06:08:18;100198.09;;;3.07;83.71
21960;BME280;11144;43.030;25.108;2024-02-21T06:09:52;100191.63;;;3.12;83.71
21960;BME280;11144;43.030;25.108;2024-02-21T06:11:24;100204.63;;;3.23;83.68
21960;BME280;11144;43.030;25.108;2024-02-21T06:12:57;100203.94;;;3.32;83.75
21960;BME280;11144;43.030;25.108;2024-02-21T06:14:31;100202.69;;;3.38;83.53
21960;BME280;11144;43.030;25.108;2024-02-21T06:16:05;100195.59;;;3.40;83.45
21960;BME280;11144;43.030;25.108;2024-02-21T06:17:40;100198.44;;;3.48;83.73
21960;BME280;11144;43.030;25.108;2024-02-21T06:19:13;100204.00;;;3.54;84.02
21960;BME280;11144;43.030;25.108;2024-02-21T06:20:46;100189.75;;;3.49;83.52
21960;BME280;11144;43.030;25.108;2024-02-21T06:22:19;100202.59;;;3.61;83.36
21960;BME280;11144;43.030;25.108;2024-02-21T06:23:52;100205.19;;;3.61;83.16
21960;BME280;11144;43.030;25.108;2024-02-21T06:25:25;100191.84;;;3.55;83.00
21960;BME280;11144;43.030;25.108;2024-02-21T06:26:57;100210.84;;;3.66;83.13
21960;BME280;11144;43.030;25.108;2024-02-21T06:28:31;100202.03;;;3.69;83.18
21960;BME280;11144;43.030;25.108;2024-02-21T06:30:04;100206.88;;;3.73;83.33
21960;BME280;11144;43.030;25.108;2024-02-21T06:31:37;100207.09;;;3.82;83.32
21960;BME280;11144;43.030;25.108;2024-02-21T06:33:11;100211.94;;;3.86;83.34
21960;BME280;11144;43.030;25.108;2024-02-21T06:34:45;100208.41;;;3.87;83.20
21960;BME280;11144;43.030;25.108;2024-02-21T06:36:18;100208.41;;;3.98;83.28
21960;BME280;11144;43.030;25.108;2024-02-21T06:37:51;100210.63;;;4.03;83.31
21960;BME280;11144;43.030;25.108;2024-02-21T06:39:24;100210.75;;;4.12;83.34
21960;BME280;11144;43.030;25.108;2024-02-21T06:40:57;100192.94;;;4.08;83.09
21960;BME280;11144;43.030;25.108;2024-02-21T06:42:32;100212.84;;;4.29;82.72
21960;BME280;11144;43.030;25.108;2024-02-21T06:44:04;100209.69;;;4.37;82.62
21960;BME280;11144;43.030;25.108;2024-02-21T06:45:38;100198.34;;;4.38;82.47
21960;BME280;11144;43.030;25.108;2024-02-21T06:47:11;100200.34;;;4.34;82.06
21960;BME280;11144;43.030;25.108;2024-02-21T06:48:46;100204.00;;;4.43;82.35
21960;BME280;11144;43.030;25.108;2024-02-21T06:50:19;100204.81;;;4.43;82.08
21960;BME280;11144;43.030;25.108;2024-02-21T06:51:52;100204.47;;;4.48;82.64
21960;BME280;11144;43.030;25.108;2024-02-21T06:53:24;100202.44;;;4.52;82.60
21960;BME280;11144;43.030;25.108;2024-02-21T06:54:58;100194.63;;;4.63;82.97
21960;BME280;11144;43.030;25.108;2024-02-21T06:56:30;100194.72;;;4.72;82.90
21960;BME280;11144;43.030;25.108;2024-02-21T06:58:03;100194.13;;;4.80;82.74
21960;BME280;11144;43.030;25.108;2024-02-21T06:59:36;100192.81;;;5.06;82.88
21960;BME280;11144;43.030;25.108;2024-02-21T07:01:10;100197.81;;;5.60;82.86
21960;BME280;11144;43.030;25.108;2024-02-21T07:02:42;100198.94;;;6.08;83.31
21960;BME280;11144;43.030;25.108;2024-02-21T07:04:17;100200.16;;;6.53;82.67
21960;BME280;11144;43.030;25.108;2024-02-21T07:05:50;100194.72;;;6.95;82.32
21960;BME280;11144;43.030;25.108;2024-02-21T07:07:22;100181.97;;;7.30;81.61
21960;BME280;11144;43.030;25.108;2024-02-21T07:08:56;100190.25;;;7.62;81.38
21960;BME280;11144;43.030;25.108;2024-02-21T07:10:28;100181.94;;;7.86;80.57
21960;BME280;11144;43.030;25.108;2024-02-21T07:12:02;100182.50;;;8.16;81.28
21960;BME280;11144;43.030;25.108;2024-02-21T07:13:36;100191.63;;;8.40;80.32
21960;BME280;11144;43.030;25.108;2024-02-21T07:15:09;100179.03;;;8.53;80.18
21960;BME280;11144;43.030;25.108;2024-02-21T07:16:41;100183.09;;;8.82;81.31
21960;BME280;11144;43.030;25.108;2024-02-21T07:18:15;100184.00;;;8.91;79.18
21960;BME280;11144;43.030;25.108;2024-02-21T07:19:48;100195.72;;;9.22;80.54
21960;BME280;11144;43.030;25.108;2024-02-21T07:21:22;100192.09;;;9.23;79.20
21960;BME280;11144;43.030;25.108;2024-02-21T07:22:54;100191.91;;;9.17;79.25
21960;BME280;11144;43.030;25.108;2024-02-21T07:24:27;100187.22;;;9.03;79.52
21960;BME280;11144;43.030;25.108;2024-02-21T07:26:00;100187.88;;;8.87;79.92
21960;BME280;11144;43.030;25.108;2024-02-21T07:27:33;100176.28;;;8.72;78.35
21960;BME280;11144;43.030;25.108;2024-02-21T07:29:05;100185.72;;;8.65;79.01
21960;BME280;11144;43.030;25.108;2024-02-21T07:30:39;100182.03;;;8.75;78.44
21960;BME280;11144;43.030;25.108;2024-02-21T07:32:12;100185.34;;;8.77;79.17
21960;BME280;11144;43.030;25.108;2024-02-21T07:33:45;100176.38;;;8.98;79.94
21960;BME280;11144;43.030;25.108;2024-02-21T07:35:20;100175.53;;;8.97;79.22
21960;BME280;11144;43.030;25.108;2024-02-21T07:36:52;100183.38;;;9.15;79.46
21960;BME280;11144;43.030;25.108;2024-02-21T07:38:26;100187.03;;;9.22;80.16
21960;BME280;11144;43.030;25.108;2024-02-21T07:39:58;100177.75;;;9.27;79.16
21960;BME280;11144;43.030;25.108;2024-02-21T07:41:31;100179.13;;;9.31;78.89
21960;BME280;11144;43.030;25.108;2024-02-21T07:43:05;100177.53;;;9.64;78.19
21960;BME280;11144;43.030;25.108;2024-02-21T07:44:39;100179.09;;;9.83;77.95
21960;BME280;11144;43.030;25.108;2024-02-21T07:46:11;100179.25;;;9.81;77.88
21960;BME280;11144;43.030;25.108;2024-02-21T07:47:44;100182.53;;;9.83;77.48
21960;BME280;11144;43.030;25.108;2024-02-21T07:49:18;100173.19;;;9.81;76.87
21960;BME280;11144;43.030;25.108;2024-02-21T07:50:52;100179.94;;;9.57;75.66
21960;BME280;11144;43.030;25.108;2024-02-21T07:52:25;100181.88;;;9.12;76.71
21960;BME280;11144;43.030;25.108;2024-02-21T07:53:58;100172.16;;;9.22;76.64
21960;BME280;11144;43.030;25.108;2024-02-21T07:55:31;100172.72;;;9.34;77.09
21960;BME280;11144;43.030;25.108;2024-02-21T07:57:04;100170.69;;;9.45;77.08
21960;BME280;11144;43.030;25.108;2024-02-21T07:58:36;100164.81;;;9.26;77.37
21960;BME280;11144;43.030;25.108;2024-02-21T08:00:10;100176.47;;;9.49;77.22
21960;BME280;11144;43.030;25.108;2024-02-21T08:01:49;100173.25;;;9.89;77.04
21960;BME280;11144;43.030;25.108;2024-02-21T08:03:22;100169.03;;;10.29;76.47
21960;BME280;11144;43.030;25.108;2024-02-21T08:04:55;100165.16;;;10.42;76.53
21960;BME280;11144;43.030;25.108;2024-02-21T08:06:30;100166.50;;;10.62;75.88
21960;BME280;11144;43.030;25.108;2024-02-21T08:08:03;100164.41;;;10.81;75.58
21960;BME280;11144;43.030;25.108;2024-02-21T08:09:39;100157.88;;;11.09;76.24